sensor_id;sensor_type;location;lat;lon;timestamp;P1;durP1;ratioP1;P2;durP2;ratioP2
8952;SDS011;4511;50.890;8.054;2023-06-19T00:01:33;8.13;;;7.43;;
8952;SDS011;4511;50.890;8.054;2023-06-19T00:04:00;8.40;;;7.60;;
8952;SDS011;4511;50.890;8.054;2023-06-19T00:06:27;9.00;;;8.30;;
8952;SDS011;4511;50.890;8.054;2023-06-19T00:08:54;8.90;;;8.00;;
8952;SDS011;4511;50.890;8.054;2023-06-19T00:11:22;8.60;;;7.80;;
8952;SDS011;4511;50.890;8.054;2023-06-19T00:13:49;8.57;;;7.80;;
8952;SDS011;4511;50.890;8.054;2023-06-19T00:16:16;8.43;;;7.57;;
8952;SDS011;4511;50.890;8.054;2023-06-19T00:18:43;8.23;;;7.60;;
8952;SDS011;4511;50.890;8.054;2023-06-19T00:21:09;9.23;;;8.07;;
8952;SDS011;4511;50.890;8.054;2023-06-19T00:23:36;8.23;;;7.53;;
8952;SDS011;4511;50.890;8.054;2023-06-19T00:26:03;8.47;;;7.70;;
8952;SDS011;4511;50.890;8.054;2023-06-19T00:28:33;8.97;;;7.40;;
8952;SDS011;4511;50.890;8.054;2023-06-19T00:31:06;8.57;;;7.87;;
8952;SDS011;4511;50.890;8.054;2023-06-19T00:33:33;8.67;;;7.73;;
8952;SDS011;4511;50.890;8.054;2023-06-19T00:36:00;9.60;;;8.70;;
8952;SDS011;4511;50.890;8.054;2023-06-19T00:38:27;9.33;;;8.53;;
8952;SDS011;4511;50.890;8.054;2023-06-19T00:40:53;10.00;;;8.40;;
8952;SDS011;4511;50.890;8.054;2023-06-19T00:43:20;8.60;;;7.80;;
8952;SDS011;4511;50.890;8.054;2023-06-19T00:45:49;8.93;;;8.23;;
8952;SDS011;4511;50.890;8.054;2023-06-19T00:48:16;9.20;;;8.40;;
8952;SDS011;4511;50.890;8.054;2023-06-19T00:50:43;9.33;;;8.50;;
8952;SDS011;4511;50.890;8.054;2023-06-19T00:53:10;9.37;;;8.57;;
8952;SDS011;4511;50.890;8.054;2023-06-19T00:55:37;8.87;;;8.17;;
8952;SDS011;4511;50.890;8.054;2023-06-19T00:58:04;9.67;;;8.37;;
8952;SDS011;4511;50.890;8.054;2023-06-19T01:00:31;9.80;;;8.90;;
8952;SDS011;4511;50.890;8.054;2023-06-19T01:02:59;9.20;;;8.40;;
8952;SDS011;4511;50.890;8.054;2023-06-19T01:05:26;9.10;;;8.30;;
8952;SDS011;4511;50.890;8.054;2023-06-19T01:07:58;9.50;;;8.70;;
8952;SDS011;4511;50.890;8.054;2023-06-19T01:10:28;9.57;;;8.67;;
8952;SDS011;4511;50.890;8.054;2023-06-19T01:13:01;9.17;;;8.37;;
8952;SDS011;4511;50.890;8.054;2023-06-19T01:15:36;8.30;;;7.57;;
8952;SDS011;4511;50.890;8.054;2023-06-19T01:18:06;8.13;;;7.53;;
8952;SDS011;4511;50.890;8.054;2023-06-19T01:20:36;8.50;;;7.80;;
8952;SDS011;4511;50.890;8.054;2023-06-19T01:23:08;8.63;;;7.83;;
8952;SDS011;4511;50.890;8.054;2023-06-19T01:25:36;8.57;;;7.57;;
8952;SDS011;4511;50.890;8.054;2023-06-19T01:28:03;7.97;;;7.23;;
8952;SDS011;4511;50.890;8.054;2023-06-19T01:30:34;7.97;;;7.00;;
8952;SDS011;4511;50.890;8.054;2023-06-19T01:33:04;8.10;;;7.30;;
8952;SDS011;4511;50.890;8.054;2023-06-19T01:35:35;7.50;;;6.80;;
8952;SDS011;4511;50.890;8.054;2023-06-19T01:38:06;7.97;;;7.27;;
8952;SDS011;4511;50.890;8.054;2023-06-19T01:40:34;7.57;;;6.97;;
8952;SDS011;4511;50.890;8.054;2023-06-19T01:43:03;8.43;;;7.73;;
8952;SDS011;4511;50.890;8.054;2023-06-19T01:45:31;7.80;;;7.03;;
8952;SDS011;4511;50.890;8.054;2023-06-19T01:47:58;8.20;;;7.50;;
8952;SDS011;4511;50.890;8.054;2023-06-19T01:50:25;7.70;;;7.10;;
8952;SDS011;4511;50.890;8.054;2023-06-19T01:52:52;7.73;;;7.10;;
8952;SDS011;4511;50.890;8.054;2023-06-19T01:55:19;7.47;;;6.87;;
8952;SDS011;4511;50.890;8.054;2023-06-19T01:57:47;8.20;;;7.50;;
8952;SDS011;4511;50.890;8.054;2023-06-19T02:00:14;8.07;;;7.33;;
8952;SDS011;4511;50.890;8.054;2023-06-19T02:02:42;8.07;;;7.27;;
8952;SDS011;4511;50.890;8.054;2023-06-19T02:05:09;8.67;;;7.97;;
8952;SDS011;4511;50.890;8.054;2023-06-19T02:07:37;8.67;;;7.87;;
8952;SDS011;4511;50.890;8.054;2023-06-19T02:10:04;9.10;;;8.20;;
8952;SDS011;4511;50.890;8.054;2023-06-19T02:12:33;8.60;;;7.83;;
8952;SDS011;4511;50.890;8.054;2023-06-19T02:15:01;8.77;;;8.03;;
8952;SDS011;4511;50.890;8.054;2023-06-19T02:17:28;9.20;;;8.30;;
8952;SDS011;4511;50.890;8.054;2023-06-19T02:19:54;8.90;;;8.10;;
8952;SDS011;4511;50.890;8.054;2023-06-19T02:22:21;9.33;;;8.53;;
8952;SDS011;4511;50.890;8.054;2023-06-19T02:24:49;8.70;;;8.00;;
8952;SDS011;4511;50.890;8.054;2023-06-19T02:27:16;10.13;;;9.00;;
8952;SDS011;4511;50.890;8.054;2023-06-19T02:29:43;10.97;;;8.77;;
8952;SDS011;4511;50.890;8.054;2023-06-19T02:32:11;9.13;;;8.23;;
8952;SDS011;4511;50.890;8.054;2023-06-19T02:34:37;9.20;;;8.40;;
8952;SDS011;4511;50.890;8.054;2023-06-19T02:37:04;8.20;;;7.60;;
8952;SDS011;4511;50.890;8.054;2023-06-19T02:39:33;8.80;;;8.00;;
8952;SDS011;4511;50.890;8.054;2023-06-19T02:41:59;8.23;;;7.43;;
8952;SDS011;4511;50.890;8.054;2023-06-19T02:44:26;9.27;;;8.37;;
8952;SDS011;4511;50.890;8.054;2023-06-19T02:46:53;9.00;;;8.30;;
8952;SDS011;4511;50.890;8.054;2023-06-19T02:49:21;8.50;;;7.70;;
8952;SDS011;4511;50.890;8.054;2023-06-19T02:51:48;9.00;;;8.17;;
8952;SDS011;4511;50.890;8.054;2023-06-19T02:54:16;8.97;;;8.27;;
8952;SDS011;4511;50.890;8.054;2023-06-19T02:56:43;8.23;;;7.63;;
8952;SDS011;4511;50.890;8.054;2023-06-19T02:59:10;8.80;;;8.10;;
8952;SDS011;4511;50.890;8.054;2023-06-19T03:01:37;8.73;;;8.03;;
8952;SDS011;4511;50.890;8.054;2023-06-19T03:04:03;9.03;;;8.13;;
8952;SDS011;4511;50.890;8.054;2023-06-19T03:06:31;8.87;;;8.07;;
8952;SDS011;4511;50.890;8.054;2023-06-19T03:09:04;8.83;;;7.93;;
8952;SDS011;4511;50.890;8.054;2023-06-19T03:11:36;8.80;;;7.93;;
8952;SDS011;4511;50.890;8.054;2023-06-19T03:14:04;9.83;;;8.53;;
8952;SDS011;4511;50.890;8.054;2023-06-19T03:16:32;9.47;;;8.57;;
8952;SDS011;4511;50.890;8.054;2023-06-19T03:18:59;9.00;;;8.10;;
8952;SDS011;4511;50.890;8.054;2023-06-19T03:21:28;8.90;;;8.10;;
8952;SDS011;4511;50.890;8.054;2023-06-19T03:23:56;8.50;;;7.80;;
8952;SDS011;4511;50.890;8.054;2023-06-19T03:26:24;9.33;;;8.47;;
8952;SDS011;4511;50.890;8.054;2023-06-19T03:28:50;8.97;;;8.07;;
8952;SDS011;4511;50.890;8.054;2023-06-19T03:31:17;8.73;;;8.00;;
8952;SDS011;4511;50.890;8.054;2023-06-19T03:33:44;9.10;;;8.20;;
8952;SDS011;4511;50.890;8.054;2023-06-19T03:36:11;8.77;;;7.97;;
8952;SDS011;4511;50.890;8.054;2023-06-19T03:38:38;8.93;;;8.13;;
8952;SDS011;4511;50.890;8.054;2023-06-19T03:41:06;8.67;;;7.97;;
8952;SDS011;4511;50.890;8.054;2023-06-19T03:43:33;9.87;;;7.83;;
8952;SDS011;4511;50.890;8.054;2023-06-19T03:45:59;8.43;;;7.67;;
8952;SDS011;4511;50.890;8.054;2023-06-19T03:48:27;8.17;;;7.50;;
8952;SDS011;4511;50.890;8.054;2023-06-19T03:50:53;8.20;;;7.50;;
8952;SDS011;4511;50.890;8.054;2023-06-19T03:53:20;8.93;;;8.03;;
8952;SDS011;4511;50.890;8.054;2023-06-19T03:55:47;8.83;;;8.03;;
8952;SDS011;4511;50.890;8.054;2023-06-19T03:58:15;8.70;;;7.90;;
8952;SDS011;4511;50.890;8.054;2023-06-19T04:00:42;8.33;;;7.53;;
8952;SDS011;4511;50.890;8.054;2023-06-19T04:03:09;8.40;;;7.70;;
8952;SDS011;4511;50.890;8.054;2023-06-19T04:05:35;9.10;;;8.30;;
8952;SDS011;4511;50.890;8.054;2023-06-19T04:08:03;8.87;;;7.97;;
8952;SDS011;4511;50.890;8.054;2023-06-19T04:10:30;8.43;;;7.63;;
8952;SDS011;4511;50.890;8.054;2023-06-19T04:12:57;8.90;;;8.20;;
8952;SDS011;4511;50.890;8.054;2023-06-19T04:15:25;9.03;;;8.23;;
8952;SDS011;4511;50.890;8.054;2023-06-19T04:17:52;8.93;;;8.13;;
8952;SDS011;4511;50.890;8.054;2023-06-19T04:20:19;9.60;;;8.80;;
8952;SDS011;4511;50.890;8.054;2023-06-19T04:22:46;8.83;;;8.03;;
8952;SDS011;4511;50.890;8.054;2023-06-19T04:25:13;8.77;;;7.93;;
8952;SDS011;4511;50.890;8.054;2023-06-19T04:27:40;9.23;;;8.33;;
8952;SDS011;4511;50.890;8.054;2023-06-19T04:30:07;9.73;;;8.83;;
8952;SDS011;4511;50.890;8.054;2023-06-19T04:32:35;9.40;;;8.50;;
8952;SDS011;4511;50.890;8.054;2023-06-19T04:35:05;10.03;;;8.60;;
8952;SDS011;4511;50.890;8.054;2023-06-19T04:37:33;8.83;;;8.03;;
8952;SDS011;4511;50.890;8.054;2023-06-19T04:39:59;9.07;;;8.07;;
8952;SDS011;4511;50.890;8.054;2023-06-19T04:42:26;8.97;;;8.17;;
8952;SDS011;4511;50.890;8.054;2023-06-19T04:44:53;8.23;;;7.47;;
8952;SDS011;4511;50.890;8.054;2023-06-19T04:47:22;9.17;;;7.63;;
8952;SDS011;4511;50.890;8.054;2023-06-19T04:49:51;8.50;;;7.70;;
8952;SDS011;4511;50.890;8.054;2023-06-19T04:52:17;8.20;;;7.50;;
8952;SDS011;4511;50.890;8.054;2023-06-19T04:54:44;8.67;;;7.87;;
8952;SDS011;4511;50.890;8.054;2023-06-19T04:57:13;11.90;;;7.40;;
8952;SDS011;4511;50.890;8.054;2023-06-19T04:59:40;7.30;;;6.70;;
8952;SDS011;4511;50.890;8.054;2023-06-19T05:02:07;7.60;;;6.90;;
8952;SDS011;4511;50.890;8.054;2023-06-19T05:04:34;7.03;;;6.43;;
8952;SDS011;4511;50.890;8.054;2023-06-19T05:07:03;6.90;;;6.20;;
8952;SDS011;4511;50.890;8.054;2023-06-19T05:09:31;6.77;;;6.17;;
8952;SDS011;4511;50.890;8.054;2023-06-19T05:11:57;6.60;;;6.00;;
8952;SDS011;4511;50.890;8.054;2023-06-19T05:14:24;6.63;;;6.03;;
8952;SDS011;4511;50.890;8.054;2023-06-19T05:16:51;6.10;;;5.50;;
8952;SDS011;4511;50.890;8.054;2023-06-19T05:19:18;6.37;;;5.83;;
8952;SDS011;4511;50.890;8.054;2023-06-19T05:21:44;8.17;;;6.07;;
8952;SDS011;4511;50.890;8.054;2023-06-19T05:24:13;6.20;;;5.60;;
8952;SDS011;4511;50.890;8.054;2023-06-19T05:26:40;5.63;;;5.13;;
8952;SDS011;4511;50.890;8.054;2023-06-19T05:29:06;6.47;;;5.97;;
8952;SDS011;4511;50.890;8.054;2023-06-19T05:31:33;5.93;;;5.33;;
8952;SDS011;4511;50.890;8.054;2023-06-19T05:34:01;7.53;;;5.73;;
8952;SDS011;4511;50.890;8.054;2023-06-19T05:36:28;7.37;;;5.77;;
8952;SDS011;4511;50.890;8.054;2023-06-19T05:38:55;6.10;;;5.60;;
8952;SDS011;4511;50.890;8.054;2023-06-19T05:41:23;5.90;;;5.40;;
8952;SDS011;4511;50.890;8.054;2023-06-19T05:43:50;6.50;;;5.50;;
8952;SDS011;4511;50.890;8.054;2023-06-19T05:46:16;5.97;;;5.33;;
8952;SDS011;4511;50.890;8.054;2023-06-19T05:48:43;7.27;;;5.33;;
8952;SDS011;4511;50.890;8.054;2023-06-19T05:51:10;6.20;;;5.60;;
8952;SDS011;4511;50.890;8.054;2023-06-19T05:53:37;6.40;;;5.80;;
8952;SDS011;4511;50.890;8.054;2023-06-19T05:56:04;5.97;;;5.47;;
8952;SDS011;4511;50.890;8.054;2023-06-19T05:58:33;6.60;;;6.00;;
8952;SDS011;4511;50.890;8.054;2023-06-19T06:01:00;6.27;;;5.67;;
8952;SDS011;4511;50.890;8.054;2023-06-19T06:03:28;8.27;;;5.97;;
8952;SDS011;4511;50.890;8.054;2023-06-19T06:05:55;6.43;;;5.93;;
8952;SDS011;4511;50.890;8.054;2023-06-19T06:08:27;6.97;;;6.37;;
8952;SDS011;4511;50.890;8.054;2023-06-19T06:10:54;6.90;;;6.30;;
8952;SDS011;4511;50.890;8.054;2023-06-19T06:13:21;6.40;;;5.90;;
8952;SDS011;4511;50.890;8.054;2023-06-19T06:15:49;6.53;;;5.93;;
8952;SDS011;4511;50.890;8.054;2023-06-19T06:18:16;7.27;;;6.57;;
8952;SDS011;4511;50.890;8.054;2023-06-19T06:20:43;8.17;;;6.30;;
8952;SDS011;4511;50.890;8.054;2023-06-19T06:23:10;6.70;;;6.20;;
8952;SDS011;4511;50.890;8.054;2023-06-19T06:25:36;7.27;;;6.60;;
8952;SDS011;4511;50.890;8.054;2023-06-19T06:28:03;7.63;;;6.93;;
8952;SDS011;4511;50.890;8.054;2023-06-19T06:30:30;7.23;;;6.67;;
8952;SDS011;4511;50.890;8.054;2023-06-19T06:32:58;7.30;;;6.60;;
8952;SDS011;4511;50.890;8.054;2023-06-19T06:35:25;7.20;;;6.50;;
8952;SDS011;4511;50.890;8.054;2023-06-19T06:37:51;7.00;;;6.40;;
8952;SDS011;4511;50.890;8.054;2023-06-19T06:40:18;7.70;;;7.00;;
8952;SDS011;4511;50.890;8.054;2023-06-19T06:42:45;7.50;;;6.90;;
8952;SDS011;4511;50.890;8.054;2023-06-19T06:45:12;7.90;;;7.20;;
8952;SDS011;4511;50.890;8.054;2023-06-19T06:47:39;7.53;;;6.93;;
8952;SDS011;4511;50.890;8.054;2023-06-19T06:50:08;8.00;;;7.30;;
8952;SDS011;4511;50.890;8.054;2023-06-19T06:52:35;7.70;;;7.10;;
8952;SDS011;4511;50.890;8.054;2023-06-19T06:55:03;7.70;;;6.93;;
8952;SDS011;4511;50.890;8.054;2023-06-19T06:57:30;7.60;;;6.90;;
8952;SDS011;4511;50.890;8.054;2023-06-19T06:59:57;7.70;;;6.97;;
8952;SDS011;4511;50.890;8.054;2023-06-19T07:02:24;8.00;;;7.30;;
8952;SDS011;4511;50.890;8.054;2023-06-19T07:04:51;8.10;;;6.77;;
8952;SDS011;4511;50.890;8.054;2023-06-19T07:07:19;7.43;;;6.70;;
8952;SDS011;4511;50.890;8.054;2023-06-19T07:09:46;7.03;;;6.33;;
8952;SDS011;4511;50.890;8.054;2023-06-19T07:12:13;7.17;;;6.57;;
8952;SDS011;4511;50.890;8.054;2023-06-19T07:14:40;7.57;;;6.80;;
8952;SDS011;4511;50.890;8.054;2023-06-19T07:17:07;9.47;;;6.77;;
8952;SDS011;4511;50.890;8.054;2023-06-19T07:19:33;7.00;;;6.30;;
8952;SDS011;4511;50.890;8.054;2023-06-19T07:22:00;6.33;;;5.83;;
8952;SDS011;4511;50.890;8.054;2023-06-19T07:24:29;5.90;;;5.40;;
8952;SDS011;4511;50.890;8.054;2023-06-19T07:26:55;5.50;;;5.00;;
8952;SDS011;4511;50.890;8.054;2023-06-19T07:29:22;5.80;;;5.30;;
8952;SDS011;4511;50.890;8.054;2023-06-19T07:31:50;5.83;;;5.33;;
8952;SDS011;4511;50.890;8.054;2023-06-19T07:34:17;5.20;;;4.70;;
8952;SDS011;4511;50.890;8.054;2023-06-19T07:36:44;5.73;;;5.23;;
8952;SDS011;4511;50.890;8.054;2023-06-19T07:39:10;5.00;;;4.60;;
8952;SDS011;4511;50.890;8.054;2023-06-19T07:41:39;5.73;;;5.23;;
8952;SDS011;4511;50.890;8.054;2023-06-19T07:44:05;5.20;;;4.67;;
8952;SDS011;4511;50.890;8.054;2023-06-19T07:46:32;5.60;;;5.00;;
8952;SDS011;4511;50.890;8.054;2023-06-19T07:48:59;5.60;;;4.80;;
8952;SDS011;4511;50.890;8.054;2023-06-19T07:51:26;5.30;;;4.90;;
8952;SDS011;4511;50.890;8.054;2023-06-19T07:53:52;5.70;;;5.13;;
8952;SDS011;4511;50.890;8.054;2023-06-19T07:56:19;5.30;;;4.90;;
8952;SDS011;4511;50.890;8.054;2023-06-19T07:58:47;6.37;;;5.37;;
8952;SDS011;4511;50.890;8.054;2023-06-19T08:01:14;6.07;;;5.40;;
8952;SDS011;4511;50.890;8.054;2023-06-19T08:03:42;5.90;;;5.40;;
8952;SDS011;4511;50.890;8.054;2023-06-19T08:06:08;5.73;;;5.30;;
8952;SDS011;4511;50.890;8.054;2023-06-19T08:08:35;6.03;;;5.40;;
8952;SDS011;4511;50.890;8.054;2023-06-19T08:11:02;6.50;;;5.90;;
8952;SDS011;4511;50.890;8.054;2023-06-19T08:13:29;6.10;;;5.50;;
8952;SDS011;4511;50.890;8.054;2023-06-19T08:15:57;6.17;;;5.57;;
8952;SDS011;4511;50.890;8.054;2023-06-19T08:18:23;7.13;;;5.57;;
8952;SDS011;4511;50.890;8.054;2023-06-19T08:20:50;6.93;;;5.60;;
8952;SDS011;4511;50.890;8.054;2023-06-19T08:23:17;8.30;;;5.80;;
8952;SDS011;4511;50.890;8.054;2023-06-19T08:25:44;6.03;;;5.53;;
8952;SDS011;4511;50.890;8.054;2023-06-19T08:28:10;6.03;;;5.47;;
8952;SDS011;4511;50.890;8.054;2023-06-19T08:30:37;6.37;;;5.77;;
8952;SDS011;4511;50.890;8.054;2023-06-19T08:33:05;6.00;;;5.50;;
8952;SDS011;4511;50.890;8.054;2023-06-19T08:35:33;6.20;;;5.70;;
8952;SDS011;4511;50.890;8.054;2023-06-19T08:38:00;6.53;;;5.93;;
8952;SDS011;4511;50.890;8.054;2023-06-19T08:40:26;6.83;;;6.23;;
8952;SDS011;4511;50.890;8.054;2023-06-19T08:42:53;6.13;;;5.53;;
8952;SDS011;4511;50.890;8.054;2023-06-19T08:45:21;6.40;;;5.80;;
8952;SDS011;4511;50.890;8.054;2023-06-19T08:47:48;6.10;;;5.57;;
8952;SDS011;4511;50.890;8.054;2023-06-19T08:50:16;5.73;;;5.30;;
8952;SDS011;4511;50.890;8.054;2023-06-19T08:52:43;5.47;;;5.07;;
8952;SDS011;4511;50.890;8.054;2023-06-19T08:55:09;6.07;;;5.50;;
8952;SDS011;4511;50.890;8.054;2023-06-19T08:57:37;5.60;;;5.10;;
8952;SDS011;4511;50.890;8.054;2023-06-19T09:00:05;5.30;;;4.90;;
8952;SDS011;4511;50.890;8.054;2023-06-19T09:02:39;5.63;;;5.10;;
8952;SDS011;4511;50.890;8.054;2023-06-19T09:05:11;5.93;;;5.43;;
8952;SDS011;4511;50.890;8.054;2023-06-19T09:07:40;5.33;;;4.93;;
8952;SDS011;4511;50.890;8.054;2023-06-19T09:10:14;5.60;;;5.10;;
8952;SDS011;4511;50.890;8.054;2023-06-19T09:12:42;5.50;;;4.60;;
8952;SDS011;4511;50.890;8.054;2023-06-19T09:15:12;5.03;;;4.63;;
8952;SDS011;4511;50.890;8.054;2023-06-19T09:17:39;5.50;;;5.00;;
8952;SDS011;4511;50.890;8.054;2023-06-19T09:20:07;5.50;;;5.00;;
8952;SDS011;4511;50.890;8.054;2023-06-19T09:22:36;5.23;;;4.70;;
8952;SDS011;4511;50.890;8.054;2023-06-19T09:25:05;5.13;;;4.63;;
8952;SDS011;4511;50.890;8.054;2023-06-19T09:27:34;5.40;;;5.00;;
8952;SDS011;4511;50.890;8.054;2023-06-19T09:30:01;5.37;;;4.90;;
8952;SDS011;4511;50.890;8.054;2023-06-19T09:32:31;5.30;;;4.90;;
8952;SDS011;4511;50.890;8.054;2023-06-19T09:34:57;5.23;;;4.83;;
8952;SDS011;4511;50.890;8.054;2023-06-19T09:37:25;5.17;;;4.77;;
8952;SDS011;4511;50.890;8.054;2023-06-19T09:39:53;5.63;;;5.13;;
8952;SDS011;4511;50.890;8.054;2023-06-19T09:42:24;7.20;;;5.00;;
8952;SDS011;4511;50.890;8.054;2023-06-19T09:44:55;5.73;;;5.13;;
8952;SDS011;4511;50.890;8.054;2023-06-19T09:47:27;6.00;;;5.50;;
8952;SDS011;4511;50.890;8.054;2023-06-19T09:49:57;6.90;;;5.50;;
8952;SDS011;4511;50.890;8.054;2023-06-19T09:52:25;6.03;;;5.60;;
8952;SDS011;4511;50.890;8.054;2023-06-19T09:54:53;5.53;;;5.13;;
8952;SDS011;4511;50.890;8.054;2023-06-19T09:57:22;5.93;;;5.27;;
8952;SDS011;4511;50.890;8.054;2023-06-19T09:59:50;6.30;;;5.70;;
8952;SDS011;4511;50.890;8.054;2023-06-19T10:02:21;5.70;;;5.30;;
8952;SDS011;4511;50.890;8.054;2023-06-19T10:04:50;5.87;;;5.37;;
8952;SDS011;4511;50.890;8.054;2023-06-19T10:07:20;5.83;;;5.33;;
8952;SDS011;4511;50.890;8.054;2023-06-19T10:09:57;5.80;;;5.20;;
8952;SDS011;4511;50.890;8.054;2023-06-19T10:12:39;5.03;;;4.63;;
8952;SDS011;4511;50.890;8.054;2023-06-19T10:15:08;6.30;;;4.70;;
8952;SDS011;4511;50.890;8.054;2023-06-19T10:17:47;5.00;;;4.60;;
8952;SDS011;4511;50.890;8.054;2023-06-19T10:23:03;5.03;;;4.63;;
8952;SDS011;4511;50.890;8.054;2023-06-19T10:25:33;4.77;;;4.37;;
8952;SDS011;4511;50.890;8.054;2023-06-19T10:28:02;7.00;;;4.83;;
8952;SDS011;4511;50.890;8.054;2023-06-19T10:30:31;4.93;;;4.50;;
8952;SDS011;4511;50.890;8.054;2023-06-19T10:32:59;5.50;;;4.77;;
8952;SDS011;4511;50.890;8.054;2023-06-19T10:35:29;4.87;;;4.47;;
8952;SDS011;4511;50.890;8.054;2023-06-19T10:38:04;4.90;;;4.50;;
8952;SDS011;4511;50.890;8.054;2023-06-19T10:40:30;4.47;;;4.07;;
8952;SDS011;4511;50.890;8.054;2023-06-19T10:42:57;4.50;;;4.10;;
8952;SDS011;4511;50.890;8.054;2023-06-19T10:45:25;6.00;;;4.40;;
8952;SDS011;4511;50.890;8.054;2023-06-19T10:47:53;5.07;;;4.53;;
8952;SDS011;4511;50.890;8.054;2023-06-19T10:50:21;6.00;;;4.53;;
8952;SDS011;4511;50.890;8.054;2023-06-19T10:52:52;5.03;;;4.53;;
8952;SDS011;4511;50.890;8.054;2023-06-19T10:55:20;4.63;;;4.23;;
8952;SDS011;4511;50.890;8.054;2023-06-19T10:57:48;5.30;;;4.33;;
8952;SDS011;4511;50.890;8.054;2023-06-19T11:00:22;4.80;;;4.30;;
8952;SDS011;4511;50.890;8.054;2023-06-19T11:02:51;4.53;;;4.17;;
8952;SDS011;4511;50.890;8.054;2023-06-19T11:05:19;5.87;;;4.20;;
8952;SDS011;4511;50.890;8.054;2023-06-19T11:07:50;4.57;;;4.17;;
8952;SDS011;4511;50.890;8.054;2023-06-19T11:10:18;4.70;;;4.30;;
8952;SDS011;4511;50.890;8.054;2023-06-19T11:12:47;4.67;;;4.23;;
8952;SDS011;4511;50.890;8.054;2023-06-19T11:15:14;3.90;;;3.60;;
8952;SDS011;4511;50.890;8.054;2023-06-19T11:17:41;5.40;;;4.10;;
8952;SDS011;4511;50.890;8.054;2023-06-19T11:20:11;4.23;;;3.93;;
8952;SDS011;4511;50.890;8.054;2023-06-19T11:22:38;4.33;;;3.93;;
8952;SDS011;4511;50.890;8.054;2023-06-19T11:25:07;4.47;;;3.90;;
8952;SDS011;4511;50.890;8.054;2023-06-19T11:27:37;4.47;;;4.07;;
8952;SDS011;4511;50.890;8.054;2023-06-19T11:30:05;4.00;;;3.67;;
8952;SDS011;4511;50.890;8.054;2023-06-19T11:32:35;4.83;;;3.83;;
8952;SDS011;4511;50.890;8.054;2023-06-19T11:35:06;4.73;;;3.60;;
8952;SDS011;4511;50.890;8.054;2023-06-19T11:37:35;3.80;;;3.50;;
8952;SDS011;4511;50.890;8.054;2023-06-19T11:40:03;3.77;;;3.47;;
8952;SDS011;4511;50.890;8.054;2023-06-19T11:42:47;3.87;;;3.57;;
8952;SDS011;4511;50.890;8.054;2023-06-19T11:45:14;3.80;;;3.50;;
8952;SDS011;4511;50.890;8.054;2023-06-19T11:47:45;3.87;;;3.57;;
8952;SDS011;4511;50.890;8.054;2023-06-19T11:50:12;3.60;;;3.30;;
8952;SDS011;4511;50.890;8.054;2023-06-19T11:52:41;4.40;;;3.60;;
8952;SDS011;4511;50.890;8.054;2023-06-19T11:55:09;4.03;;;3.60;;
8952;SDS011;4511;50.890;8.054;2023-06-19T11:57:36;3.40;;;3.20;;
8952;SDS011;4511;50.890;8.054;2023-06-19T12:00:11;3.80;;;3.50;;
8952;SDS011;4511;50.890;8.054;2023-06-19T12:02:41;4.77;;;3.67;;
8952;SDS011;4511;50.890;8.054;2023-06-19T12:05:10;4.10;;;3.70;;
8952;SDS011;4511;50.890;8.054;2023-06-19T12:07:37;3.90;;;3.60;;
8952;SDS011;4511;50.890;8.054;2023-06-19T12:10:06;4.37;;;3.97;;
8952;SDS011;4511;50.890;8.054;2023-06-19T12:12:37;4.30;;;3.80;;
8952;SDS011;4511;50.890;8.054;2023-06-19T12:15:04;4.60;;;4.20;;
8952;SDS011;4511;50.890;8.054;2023-06-19T12:17:31;3.83;;;3.53;;
8952;SDS011;4511;50.890;8.054;2023-06-19T12:19:59;4.50;;;3.37;;
8952;SDS011;4511;50.890;8.054;2023-06-19T12:22:26;4.40;;;3.60;;
8952;SDS011;4511;50.890;8.054;2023-06-19T12:24:53;4.13;;;3.30;;
8952;SDS011;4511;50.890;8.054;2023-06-19T12:27:21;6.57;;;3.40;;
8952;SDS011;4511;50.890;8.054;2023-06-19T12:29:47;3.90;;;3.60;;
8952;SDS011;4511;50.890;8.054;2023-06-19T12:32:14;3.67;;;3.30;;
8952;SDS011;4511;50.890;8.054;2023-06-19T12:34:41;3.63;;;3.33;;
8952;SDS011;4511;50.890;8.054;2023-06-19T12:37:11;3.80;;;3.40;;
8952;SDS011;4511;50.890;8.054;2023-06-19T12:39:38;5.30;;;3.33;;
8952;SDS011;4511;50.890;8.054;2023-06-19T12:42:06;3.70;;;3.40;;
8952;SDS011;4511;50.890;8.054;2023-06-19T12:44:38;4.87;;;3.23;;
8952;SDS011;4511;50.890;8.054;2023-06-19T12:47:06;4.00;;;3.10;;
8952;SDS011;4511;50.890;8.054;2023-06-19T12:49:33;3.20;;;3.00;;
8952;SDS011;4511;50.890;8.054;2023-06-19T12:52:00;4.67;;;2.80;;
8952;SDS011;4511;50.890;8.054;2023-06-19T12:54:28;3.13;;;2.93;;
8952;SDS011;4511;50.890;8.054;2023-06-19T12:56:54;6.23;;;2.80;;
8952;SDS011;4511;50.890;8.054;2023-06-19T12:59:21;3.10;;;2.90;;
8952;SDS011;4511;50.890;8.054;2023-06-19T13:01:49;3.30;;;3.00;;
8952;SDS011;4511;50.890;8.054;2023-06-19T13:04:16;2.90;;;2.70;;
8952;SDS011;4511;50.890;8.054;2023-06-19T13:06:43;2.90;;;2.70;;
8952;SDS011;4511;50.890;8.054;2023-06-19T13:09:09;3.57;;;2.87;;
8952;SDS011;4511;50.890;8.054;2023-06-19T13:11:36;2.93;;;2.70;;
8952;SDS011;4511;50.890;8.054;2023-06-19T13:14:03;3.33;;;2.70;;
8952;SDS011;4511;50.890;8.054;2023-06-19T13:16:31;2.60;;;2.33;;
8952;SDS011;4511;50.890;8.054;2023-06-19T13:18:59;2.83;;;2.63;;
8952;SDS011;4511;50.890;8.054;2023-06-19T13:21:25;3.73;;;2.90;;
8952;SDS011;4511;50.890;8.054;2023-06-19T13:23:52;3.27;;;2.50;;
8952;SDS011;4511;50.890;8.054;2023-06-19T13:26:19;2.73;;;2.53;;
8952;SDS011;4511;50.890;8.054;2023-06-19T13:28:46;2.87;;;2.60;;
8952;SDS011;4511;50.890;8.054;2023-06-19T13:31:12;2.70;;;2.50;;
8952;SDS011;4511;50.890;8.054;2023-06-19T13:33:39;2.53;;;2.33;;
8952;SDS011;4511;50.890;8.054;2023-06-19T13:36:07;2.80;;;2.60;;
8952;SDS011;4511;50.890;8.054;2023-06-19T13:38:34;2.93;;;2.50;;
8952;SDS011;4511;50.890;8.054;2023-06-19T13:41:01;2.77;;;2.50;;
8952;SDS011;4511;50.890;8.054;2023-06-19T13:43:28;2.80;;;2.60;;
8952;SDS011;4511;50.890;8.054;2023-06-19T13:45:54;2.90;;;2.70;;
8952;SDS011;4511;50.890;8.054;2023-06-19T13:48:21;2.83;;;2.50;;
8952;SDS011;4511;50.890;8.054;2023-06-19T13:50:48;3.17;;;2.90;;
8952;SDS011;4511;50.890;8.054;2023-06-19T13:53:16;3.73;;;2.63;;
8952;SDS011;4511;50.890;8.054;2023-06-19T13:55:43;3.93;;;2.40;;
8952;SDS011;4511;50.890;8.054;2023-06-19T13:58:09;3.03;;;2.83;;
8952;SDS011;4511;50.890;8.054;2023-06-19T14:00:36;2.83;;;2.63;;
8952;SDS011;4511;50.890;8.054;2023-06-19T14:03:04;2.53;;;2.40;;
8952;SDS011;4511;50.890;8.054;2023-06-19T14:05:32;2.97;;;2.60;;
8952;SDS011;4511;50.890;8.054;2023-06-19T14:07:59;3.10;;;2.80;;
8952;SDS011;4511;50.890;8.054;2023-06-19T14:10:27;2.80;;;2.60;;
8952;SDS011;4511;50.890;8.054;2023-06-19T14:12:54;3.43;;;2.83;;
8952;SDS011;4511;50.890;8.054;2023-06-19T14:15:21;6.50;;;2.60;;
8952;SDS011;4511;50.890;8.054;2023-06-19T14:17:48;3.07;;;2.87;;
8952;SDS011;4511;50.890;8.054;2023-06-19T14:20:14;3.50;;;3.07;;
8952;SDS011;4511;50.890;8.054;2023-06-19T14:22:41;2.90;;;2.70;;
8952;SDS011;4511;50.890;8.054;2023-06-19T14:25:08;2.90;;;2.70;;
8952;SDS011;4511;50.890;8.054;2023-06-19T14:27:36;3.50;;;2.90;;
8952;SDS011;4511;50.890;8.054;2023-06-19T14:30:03;3.03;;;2.73;;
8952;SDS011;4511;50.890;8.054;2023-06-19T14:32:33;2.90;;;2.70;;
8952;SDS011;4511;50.890;8.054;2023-06-19T14:35:01;3.00;;;2.80;;
8952;SDS011;4511;50.890;8.054;2023-06-19T14:37:27;2.80;;;2.60;;
8952;SDS011;4511;50.890;8.054;2023-06-19T14:39:54;3.10;;;2.80;;
8952;SDS011;4511;50.890;8.054;2023-06-19T14:42:21;2.70;;;2.50;;
8952;SDS011;4511;50.890;8.054;2023-06-19T14:44:51;3.10;;;2.80;;
8952;SDS011;4511;50.890;8.054;2023-06-19T14:47:18;3.10;;;2.80;;
8952;SDS011;4511;50.890;8.054;2023-06-19T14:49:44;4.57;;;3.03;;
8952;SDS011;4511;50.890;8.054;2023-06-19T14:52:12;3.00;;;2.80;;
8952;SDS011;4511;50.890;8.054;2023-06-19T14:54:40;3.57;;;2.80;;
8952;SDS011;4511;50.890;8.054;2023-06-19T14:57:06;3.47;;;2.70;;
8952;SDS011;4511;50.890;8.054;2023-06-19T14:59:33;2.80;;;2.60;;
8952;SDS011;4511;50.890;8.054;2023-06-19T15:02:01;3.50;;;2.70;;
8952;SDS011;4511;50.890;8.054;2023-06-19T15:04:28;3.00;;;2.70;;
8952;SDS011;4511;50.890;8.054;2023-06-19T15:06:56;4.53;;;3.10;;
8952;SDS011;4511;50.890;8.054;2023-06-19T15:09:23;4.27;;;2.60;;
8952;SDS011;4511;50.890;8.054;2023-06-19T15:11:50;3.63;;;2.90;;
8952;SDS011;4511;50.890;8.054;2023-06-19T15:14:17;2.90;;;2.70;;
8952;SDS011;4511;50.890;8.054;2023-06-19T15:16:44;2.80;;;2.60;;
8952;SDS011;4511;50.890;8.054;2023-06-19T15:19:13;3.13;;;2.70;;
8952;SDS011;4511;50.890;8.054;2023-06-19T15:21:40;2.70;;;2.50;;